createdAt,value
2023-02-11T00:02:01.644Z,72.11
2023-02-11T00:04:34.205Z,72.38
2023-02-11T00:07:06.442Z,72.58
2023-02-11T00:09:38.601Z,72.83
2023-02-11T00:12:10.914Z,73.74
2023-02-11T00:14:43.350Z,75.03
2023-02-11T00:17:15.856Z,75.71
2023-02-11T00:19:50.354Z,74.78
2023-02-11T00:22:22.726Z,75.62
2023-02-11T00:24:55.017Z,73.78
2023-02-11T00:27:27.523Z,74.07
2023-02-11T00:30:02.405Z,75.19
2023-02-11T00:32:36.568Z,74.05
2023-02-11T00:35:11.454Z,75.67
2023-02-11T00:37:44.630Z,74.41
2023-02-11T00:40:16.914Z,73.44
2023-02-11T00:42:49.254Z,74.05
2023-02-11T00:45:22.580Z,73.52
2023-02-11T00:47:54.694Z,73.60
2023-02-11T00:50:27.170Z,74.43
2023-02-11T00:53:01.439Z,76.11
2023-02-11T00:55:35.765Z,75.68
2023-02-11T00:58:07.965Z,75.34
2023-02-11T01:00:41.525Z,75.53
2023-02-11T01:03:13.682Z,75.38
2023-02-11T01:05:46.081Z,76.04
2023-02-11T01:08:18.388Z,76.67
2023-02-11T01:10:57.219Z,76.83
2023-02-11T01:13:30.261Z,77.14
2023-02-11T01:16:02.718Z,76.43
2023-02-11T01:18:35.415Z,76.05
2023-02-11T01:21:08.963Z,75.90
2023-02-11T01:23:41.239Z,77.20
2023-02-11T01:26:13.614Z,77.20
2023-02-11T01:28:46.189Z,78.09
2023-02-11T01:31:18.691Z,78.46
2023-02-11T01:33:51.017Z,77.54
2023-02-11T01:36:23.147Z,77.40
2023-02-11T01:38:55.679Z,76.02
2023-02-11T01:41:28.240Z,75.20
2023-02-11T01:44:29.659Z,75.84
2023-02-11T01:47:04.905Z,76.60
2023-02-11T01:49:39.885Z,75.99
2023-02-11T01:52:15.784Z,76.32
2023-02-11T01:55:10.080Z,75.48
2023-02-11T01:57:46.597Z,76.74
2023-02-11T02:00:20.584Z,77.32
2023-02-11T02:02:59.193Z,77.20
2023-02-11T02:05:37.407Z,77.42
2023-02-11T02:08:15.828Z,76.27
2023-02-11T02:10:54.013Z,76.31
2023-02-11T02:13:27.154Z,75.87
2023-02-11T02:16:01.242Z,75.38
2023-02-11T02:18:51.201Z,75.40
2023-02-11T02:22:10.878Z,75.21
2023-02-11T02:24:56.678Z,75.15
2023-02-11T02:27:38.896Z,75.41
2023-02-11T02:30:47.941Z,75.18
2023-02-11T02:33:35.461Z,75.12
2023-02-11T02:36:16.113Z,75.21
2023-02-11T02:38:54.421Z,75.62
2023-02-11T02:41:29.981Z,75.38
2023-02-11T02:44:02.336Z,75.55
2023-02-11T02:46:36.516Z,75.38
2023-02-11T02:49:16.198Z,75.48
2023-02-11T02:52:15.820Z,74.98
2023-02-11T02:55:13.018Z,75.47
2023-02-11T02:58:01.652Z,75.54
2023-02-11T03:00:44.334Z,75.10
2023-02-11T03:03:31.422Z,74.64
2023-02-11T03:06:06.726Z,74.85
2023-02-11T03:08:44.930Z,74.97
2023-02-11T03:11:20.822Z,76.03
2023-02-11T03:13:55.177Z,76.39
2023-02-11T03:16:29.171Z,76.11
2023-02-11T03:19:05.205Z,75.74
2023-02-11T03:21:42.639Z,75.05
2023-02-11T03:24:18.612Z,74.85
2023-02-11T03:26:53.862Z,75.18
2023-02-11T03:29:36.206Z,74.85
2023-02-11T03:32:16.397Z,75.20
2023-02-11T03:34:54.328Z,75.19
2023-02-11T03:37:30.157Z,75.67
2023-02-11T03:40:06.467Z,76.46
2023-02-11T03:42:42.241Z,76.16
2023-02-11T03:45:18.678Z,75.68
2023-02-11T03:47:52.255Z,75.08
2023-02-11T03:50:27.861Z,74.53
2023-02-11T03:53:03.125Z,74.46
2023-02-11T03:55:40.593Z,74.21
2023-02-11T03:58:13.443Z,74.78
2023-02-11T04:00:46.468Z,75.23
2023-02-11T04:03:19.327Z,74.93
2023-02-11T04:05:52.423Z,74.58
2023-02-11T04:08:24.792Z,74.35
2023-02-11T04:10:56.859Z,74.49
2023-02-11T04:13:29.159Z,74.26
2023-02-11T04:16:01.370Z,74.53
2023-02-11T04:18:33.571Z,74.86
2023-02-11T04:21:05.808Z,74.65
2023-02-11T04:23:38.346Z,74.18
2023-02-11T04:26:10.477Z,74.30
2023-02-11T04:28:42.830Z,74.55
2023-02-11T04:31:15.070Z,74.51
2023-02-11T04:33:48.102Z,74.80
2023-02-11T04:36:20.230Z,74.60
2023-02-11T04:38:52.558Z,74.91
2023-02-11T04:41:24.635Z,74.71
2023-02-11T04:43:56.794Z,74.28
2023-02-11T04:46:29.032Z,73.92
2023-02-11T04:49:01.358Z,73.55
2023-02-11T04:51:34.454Z,73.14
2023-02-11T04:54:06.842Z,73.07
2023-02-11T04:56:39.003Z,72.94
2023-02-11T04:59:12.041Z,73.04
2023-02-11T05:01:44.747Z,73.21
2023-02-11T05:04:17.391Z,73.87
2023-02-11T05:06:49.772Z,74.04
2023-02-11T05:09:22.367Z,73.90
2023-02-11T05:11:54.803Z,73.46
2023-02-11T05:14:27.079Z,73.27
2023-02-11T05:16:59.201Z,73.17
2023-02-11T05:19:32.557Z,73.05
2023-02-11T05:22:05.055Z,73.20
2023-02-11T05:24:37.458Z,73.15
2023-02-11T05:27:09.672Z,73.13
2023-02-11T05:29:41.987Z,73.21
2023-02-11T05:32:14.391Z,73.74
2023-02-11T05:34:46.931Z,74.23
2023-02-11T05:37:19.580Z,74.00
2023-02-11T05:39:52.301Z,73.53
2023-02-11T05:42:24.381Z,73.61
2023-02-11T05:44:56.436Z,73.26
2023-02-11T05:47:29.020Z,73.04
2023-02-11T05:50:01.754Z,73.39
2023-02-11T05:52:34.272Z,73.84
2023-02-11T05:55:07.836Z,73.24
2023-02-11T05:57:40.190Z,73.18
2023-02-11T06:00:14.930Z,73.25
2023-02-11T06:02:47.248Z,73.22
2023-02-11T06:05:20.400Z,73.42
2023-02-11T06:07:52.578Z,73.89
2023-02-11T06:10:25.001Z,74.09
2023-02-11T06:12:57.148Z,73.96
2023-02-11T06:15:29.570Z,73.67
2023-02-11T06:18:01.782Z,73.61
2023-02-11T06:20:34.111Z,73.48
2023-02-11T06:23:06.221Z,73.42
2023-02-11T06:25:38.658Z,73.51
2023-02-11T06:28:11.623Z,74.01
2023-02-11T06:30:43.991Z,73.89
2023-02-11T06:33:16.913Z,74.36
2023-02-11T06:35:49.444Z,74.41
2023-02-11T06:38:24.144Z,74.21
2023-02-11T06:40:56.426Z,73.80
2023-02-11T06:43:28.777Z,73.48
2023-02-11T06:46:01.471Z,73.26
2023-02-11T06:48:34.066Z,73.51
2023-02-11T06:51:08.364Z,73.25
2023-02-11T06:53:42.348Z,73.33
2023-02-11T06:56:16.981Z,73.04
2023-02-11T06:58:49.209Z,73.30
2023-02-11T07:01:21.483Z,73.56
2023-02-11T07:03:54.820Z,73.90
2023-02-11T07:06:28.543Z,73.67
2023-02-11T07:09:00.797Z,73.76
2023-02-11T07:11:33.776Z,73.80
2023-02-11T07:14:09.525Z,73.38
2023-02-11T07:16:42.173Z,72.99
2023-02-11T07:19:14.567Z,73.10
2023-02-11T07:21:46.772Z,73.46
2023-02-11T07:24:18.933Z,73.89
2023-02-11T07:26:51.514Z,73.93
2023-02-11T07:29:23.915Z,73.93
2023-02-11T07:31:56.432Z,73.61
2023-02-11T07:34:28.945Z,73.66
2023-02-11T07:37:01.213Z,73.74
2023-02-11T07:39:33.597Z,73.85
2023-02-11T07:42:10.563Z,73.63
2023-02-11T07:44:44.668Z,73.66
2023-02-11T07:47:17.240Z,73.84
2023-02-11T07:49:51.158Z,73.54
2023-02-11T07:52:24.686Z,73.39
2023-02-11T07:54:57.959Z,73.37
2023-02-11T07:57:30.807Z,72.62
2023-02-11T08:00:03.132Z,72.12
2023-02-11T08:02:43.002Z,72.12
2023-02-11T08:05:15.423Z,71.61
2023-02-11T08:07:47.598Z,71.82
2023-02-11T08:10:19.753Z,72.02
2023-02-11T08:12:51.948Z,72.06
2023-02-11T08:15:24.349Z,72.04
2023-02-11T08:17:56.682Z,71.18
2023-02-11T08:20:29.755Z,71.08
2023-02-11T08:23:02.274Z,70.79
2023-02-11T08:25:35.528Z,70.57
2023-02-11T08:28:09.434Z,70.57
2023-02-11T08:30:41.733Z,70.66
2023-02-11T08:33:13.900Z,71.10
2023-02-11T08:35:46.678Z,71.28
2023-02-11T08:38:19.053Z,70.97
2023-02-11T08:40:51.522Z,70.94
2023-02-11T08:43:24.920Z,70.92
2023-02-11T08:45:59.521Z,70.75
2023-02-11T08:48:34.421Z,70.71
2023-02-11T08:51:11.290Z,70.32
2023-02-11T08:53:43.624Z,70.00
2023-02-11T08:56:17.540Z,69.82
2023-02-11T08:58:50.639Z,70.24
2023-02-11T09:01:26.245Z,70.21
2023-02-11T09:03:59.598Z,69.77
2023-02-11T09:06:32.081Z,69.65
2023-02-11T09:09:04.658Z,69.66
2023-02-11T09:11:38.199Z,69.23
2023-02-11T09:14:16.639Z,68.82
2023-02-11T09:16:49.398Z,68.64
2023-02-11T09:19:23.234Z,68.71
2023-02-11T09:21:55.985Z,68.41
2023-02-11T09:24:29.017Z,68.45
2023-02-11T09:27:01.363Z,68.11
2023-02-11T09:29:33.761Z,67.82
2023-02-11T09:32:09.754Z,68.56
2023-02-11T09:34:43.078Z,68.38
2023-02-11T09:37:15.379Z,68.69
2023-02-11T09:39:47.960Z,68.34
2023-02-11T09:42:45.631Z,68.02
2023-02-11T09:45:23.756Z,67.69
2023-02-11T09:48:00.516Z,67.69
2023-02-11T09:50:37.118Z,67.42
2023-02-11T09:53:16.320Z,67.94
2023-02-11T09:55:55.965Z,67.82
2023-02-11T09:58:32.095Z,68.21
2023-02-11T10:01:10.476Z,68.52
2023-02-11T10:04:00.688Z,68.28
2023-02-11T10:06:40.902Z,67.83
2023-02-11T10:09:33.324Z,67.52
2023-02-11T10:12:23.641Z,67.33
2023-02-11T10:15:23.790Z,67.17
2023-02-11T10:18:12.089Z,67.36
2023-02-11T10:20:58.696Z,67.19
2023-02-11T10:23:37.517Z,67.15
2023-02-11T10:26:16.342Z,67.42
2023-02-11T10:28:51.083Z,67.51
2023-02-11T10:31:26.445Z,66.75
2023-02-11T10:34:03.796Z,66.24
2023-02-11T10:36:38.901Z,66.08
2023-02-11T10:39:16.215Z,65.87
2023-02-11T10:41:52.583Z,65.36
2023-02-11T10:44:29.132Z,65.36
2023-02-11T10:47:06.395Z,65.17
2023-02-11T10:49:41.187Z,65.30
2023-02-11T10:52:23.948Z,65.28
2023-02-11T10:55:06.634Z,65.31
2023-02-11T10:57:44.811Z,65.84
2023-02-11T11:00:41.311Z,65.33
2023-02-11T11:03:22.654Z,64.99
2023-02-11T11:05:58.560Z,65.19
2023-02-11T11:08:43.823Z,65.76
2023-02-11T11:11:19.464Z,65.92
2023-02-11T11:14:01.230Z,65.78
2023-02-11T11:16:36.555Z,65.81
2023-02-11T11:19:26.465Z,65.31
2023-02-11T11:22:00.791Z,65.50
2023-02-11T11:24:42.893Z,65.33
2023-02-11T11:27:22.955Z,65.25
2023-02-11T11:29:58.345Z,65.14
2023-02-11T11:32:33.687Z,65.51
2023-02-11T11:35:22.600Z,65.63
2023-02-11T11:38:01.735Z,65.23
2023-02-11T11:40:35.801Z,64.98
2023-02-11T11:43:23.240Z,65.54
2023-02-11T11:46:03.009Z,66.04
2023-02-11T11:48:39.613Z,65.96
2023-02-11T11:51:14.903Z,65.75
2023-02-11T11:53:54.737Z,65.65
2023-02-11T11:56:30.252Z,65.57
2023-02-11T11:59:12.320Z,65.54
2023-02-11T12:01:49.366Z,65.72
2023-02-11T12:04:40.586Z,65.82
2023-02-11T12:07:26.077Z,65.90
2023-02-11T12:10:26.702Z,66.01
2023-02-11T12:13:08.250Z,66.17
2023-02-11T12:15:50.997Z,66.68
2023-02-11T12:18:45.545Z,67.08
2023-02-11T12:21:31.005Z,67.03
2023-02-11T12:24:17.512Z,66.79
2023-02-11T12:26:57.905Z,66.85
2023-02-11T12:29:50.105Z,66.69
2023-02-11T12:32:36.646Z,66.60
2023-02-11T12:35:24.685Z,66.45
2023-02-11T12:38:21.818Z,66.43
2023-02-11T12:41:10.464Z,66.65
2023-02-11T12:43:45.583Z,66.58
2023-02-11T12:46:44.682Z,67.16
2023-02-11T12:49:34.709Z,67.48
2023-02-11T12:52:29.444Z,67.39
2023-02-11T12:55:09.370Z,66.97
2023-02-11T12:57:45.810Z,66.75
2023-02-11T13:00:22.457Z,66.51
2023-02-11T13:03:01.599Z,66.99
2023-02-11T13:05:40.847Z,67.14
2023-02-11T13:08:17.404Z,67.10
2023-02-11T13:10:54.349Z,68.00
2023-02-11T13:13:31.282Z,68.34
2023-02-11T13:16:08.039Z,68.12
2023-02-11T13:18:51.006Z,68.02
2023-02-11T13:21:37.889Z,68.02
2023-02-11T13:24:20.925Z,68.34
2023-02-11T13:27:02.555Z,68.39
2023-02-11T13:29:44.931Z,68.34
2023-02-11T13:32:16.406Z,69.06
2023-02-11T13:35:00.537Z,69.40
2023-02-11T13:37:37.945Z,69.14
2023-02-11T13:40:24.928Z,69.24
2023-02-11T13:43:00.109Z,69.27
2023-02-11T13:45:37.192Z,69.07
2023-02-11T13:48:21.492Z,69.27
2023-02-11T13:50:57.379Z,69.54
2023-02-11T13:53:30.758Z,70.26
2023-02-11T13:56:11.608Z,70.10
2023-02-11T13:58:51.980Z,69.79
2023-02-11T14:02:16.374Z,69.69
2023-02-11T14:05:38.091Z,69.75
2023-02-11T14:08:43.136Z,70.20
2023-02-11T14:11:49.131Z,70.56
2023-02-11T14:14:28.093Z,70.52
2023-02-11T14:17:31.225Z,70.38
2023-02-11T14:20:27.591Z,70.17
2023-02-11T14:23:00.296Z,70.03
2023-02-11T14:25:33.266Z,70.28
2023-02-11T14:28:16.410Z,70.65
2023-02-11T14:31:05.212Z,70.92
2023-02-11T14:34:14.574Z,70.80
2023-02-11T14:37:05.194Z,70.44
2023-02-11T14:39:52.832Z,70.36
2023-02-11T14:42:28.422Z,70.09
2023-02-11T14:45:05.816Z,70.17
2023-02-11T14:47:46.668Z,70.06
2023-02-11T14:50:24.350Z,70.13
2023-02-11T14:53:00.217Z,70.51
2023-02-11T14:55:37.379Z,70.19
2023-02-11T14:58:17.886Z,70.51
2023-02-11T15:00:57.484Z,70.00
2023-02-11T15:03:37.702Z,70.01
2023-02-11T15:06:18.553Z,70.05
2023-02-11T15:08:54.713Z,70.43
2023-02-11T15:11:30.116Z,70.84
2023-02-11T15:14:09.297Z,70.81
2023-02-11T15:16:46.899Z,70.77
2023-02-11T15:19:26.870Z,70.44
2023-02-11T15:21:59.776Z,70.18
2023-02-11T15:24:35.151Z,70.46
2023-02-11T15:27:15.583Z,70.39
2023-02-11T15:29:50.830Z,70.79
2023-02-11T15:32:26.719Z,71.16
2023-02-11T15:34:59.235Z,71.73
2023-02-11T15:37:32.418Z,71.49
2023-02-11T15:40:19.003Z,70.80
2023-02-11T15:42:59.356Z,70.76
2023-02-11T15:45:35.051Z,71.30
2023-02-11T15:48:15.353Z,71.59
2023-02-11T15:50:55.088Z,71.97
2023-02-11T15:53:32.673Z,71.80
2023-02-11T15:56:11.410Z,71.40
2023-02-11T15:58:46.239Z,71.82
2023-02-11T16:01:19.064Z,71.61
2023-02-11T16:03:54.122Z,71.80
2023-02-11T16:06:29.541Z,71.78
2023-02-11T16:09:05.863Z,71.48
2023-02-11T16:11:55.116Z,71.09
2023-02-11T16:14:32.799Z,71.43
2023-02-11T16:17:10.522Z,71.99
2023-02-11T16:19:49.014Z,72.21
2023-02-11T16:22:26.386Z,72.33
2023-02-11T16:25:01.051Z,72.49
2023-02-11T16:27:39.287Z,72.41
2023-02-11T16:30:29.271Z,72.16
2023-02-11T16:33:01.820Z,72.31
2023-02-11T16:35:34.007Z,72.73
2023-02-11T16:38:06.572Z,72.37
2023-02-11T16:40:38.990Z,72.18
2023-02-11T16:43:11.985Z,72.16
2023-02-11T16:45:44.920Z,73.04
2023-02-11T16:48:20.369Z,72.78
2023-02-11T16:50:53.727Z,73.86
2023-02-11T16:53:27.251Z,73.66
2023-02-11T16:55:59.379Z,73.88
2023-02-11T16:58:32.121Z,73.74
2023-02-11T17:01:05.432Z,73.47
2023-02-11T17:03:40.731Z,73.55
2023-02-11T17:06:14.637Z,74.02
2023-02-11T17:08:47.967Z,74.31
2023-02-11T17:11:20.415Z,74.68
2023-02-11T17:13:52.664Z,75.11
2023-02-11T17:16:28.054Z,75.36
2023-02-11T17:19:00.263Z,75.14
2023-02-11T17:21:32.634Z,74.70
2023-02-11T17:24:05.048Z,75.17
2023-02-11T17:26:37.654Z,75.27
2023-02-11T17:29:11.656Z,75.91
2023-02-11T17:31:44.693Z,75.81
2023-02-11T17:34:18.843Z,76.06
2023-02-11T17:36:52.312Z,76.21
2023-02-11T17:39:24.732Z,76.35
2023-02-11T17:41:57.004Z,77.27
2023-02-11T17:44:30.688Z,77.54
2023-02-11T17:47:03.059Z,77.16
2023-02-11T17:49:35.356Z,77.03
2023-02-11T17:52:07.848Z,77.68
2023-02-11T17:54:40.972Z,78.52
2023-02-11T17:57:15.200Z,78.35
2023-02-11T17:59:48.111Z,78.66
2023-02-11T18:02:20.894Z,78.78
2023-02-11T18:04:56.017Z,78.81
2023-02-11T18:07:30.364Z,79.57
2023-02-11T18:10:03.427Z,79.55
2023-02-11T18:12:36.137Z,79.78
2023-02-11T18:15:10.375Z,80.21
2023-02-11T18:17:43.189Z,80.22
2023-02-11T18:20:16.116Z,80.20
2023-02-11T18:22:50.312Z,80.31
2023-02-11T18:25:23.808Z,80.12
2023-02-11T18:27:56.024Z,80.92
2023-02-11T18:30:29.696Z,81.36
2023-02-11T18:33:04.907Z,81.22
2023-02-11T18:35:40.375Z,81.24
2023-02-11T18:38:12.852Z,81.63
2023-02-11T18:40:47.590Z,81.54
2023-02-11T18:43:19.973Z,81.61
2023-02-11T18:45:53.321Z,81.10
2023-02-11T18:48:27.443Z,82.00
2023-02-11T18:50:59.738Z,81.63
2023-02-11T18:53:32.259Z,82.09
2023-02-11T18:56:10.949Z,82.07
2023-02-11T18:58:43.568Z,81.81
2023-02-11T19:01:20.844Z,81.27
2023-02-11T19:03:53.974Z,81.54
2023-02-11T19:06:28.934Z,81.45
2023-02-11T19:09:05.330Z,81.66
2023-02-11T19:11:51.129Z,82.03
2023-02-11T19:14:26.256Z,81.83
2023-02-11T19:17:00.550Z,81.83
2023-02-11T19:19:35.796Z,81.58
2023-02-11T19:22:10.509Z,81.29
2023-02-11T19:24:43.514Z,81.56
2023-02-11T19:27:16.145Z,81.55
2023-02-11T19:29:48.420Z,81.42
2023-02-11T19:32:20.745Z,81.61
2023-02-11T19:34:53.787Z,81.90
2023-02-11T19:37:25.950Z,81.91
2023-02-11T19:39:58.525Z,81.87
2023-02-11T19:42:31.403Z,81.83
2023-02-11T19:45:03.795Z,81.91
2023-02-11T19:47:36.412Z,81.66
2023-02-11T19:50:10.781Z,81.88
2023-02-11T19:52:43.569Z,81.64
2023-02-11T19:55:16.305Z,81.77
2023-02-11T19:57:48.967Z,81.21
2023-02-11T20:00:22.790Z,81.23
2023-02-11T20:02:55.139Z,81.53
2023-02-11T20:05:27.688Z,81.35
2023-02-11T20:08:00.432Z,81.46
2023-02-11T20:10:33.015Z,81.20
2023-02-11T20:13:05.406Z,80.87
2023-02-11T20:15:38.093Z,81.08
2023-02-11T20:18:10.570Z,81.09
2023-02-11T20:20:43.205Z,81.27
2023-02-11T20:23:15.892Z,81.19
2023-02-11T20:25:48.656Z,81.28
2023-02-11T20:28:20.936Z,81.51
2023-02-11T20:30:59.900Z,81.30
2023-02-11T20:33:32.636Z,80.93
2023-02-11T20:36:08.187Z,80.97
2023-02-11T20:38:40.811Z,80.68
2023-02-11T20:41:16.822Z,80.82
2023-02-11T20:43:52.568Z,81.05
2023-02-11T20:46:28.393Z,81.22
2023-02-11T20:49:01.690Z,81.49
2023-02-11T20:51:37.067Z,81.70
2023-02-11T20:54:12.737Z,81.57
2023-02-11T20:56:47.846Z,81.40
2023-02-11T20:59:21.247Z,81.44
2023-02-11T21:01:56.678Z,81.62
2023-02-11T21:04:30.932Z,81.36
2023-02-11T21:07:04.240Z,81.34
2023-02-11T21:09:36.797Z,81.63
2023-02-11T21:12:09.591Z,81.64
2023-02-11T21:14:42.059Z,81.79
2023-02-11T21:17:14.736Z,81.67
2023-02-11T21:19:47.315Z,81.70
2023-02-11T21:22:20.395Z,81.85
2023-02-11T21:24:53.420Z,82.37
2023-02-11T21:27:31.307Z,82.17
2023-02-11T21:30:03.791Z,81.87
2023-02-11T21:32:36.139Z,82.21
2023-02-11T21:35:10.590Z,81.91
2023-02-11T21:37:42.929Z,81.94
2023-02-11T21:40:16.203Z,82.01
2023-02-11T21:42:48.690Z,82.14
2023-02-11T21:45:21.696Z,82.34
2023-02-11T21:47:54.745Z,82.29
2023-02-11T21:50:27.425Z,82.43
2023-02-11T21:52:59.589Z,82.33
2023-02-11T21:55:31.790Z,81.84
2023-02-11T21:58:04.658Z,81.48
2023-02-11T22:00:36.961Z,81.23
2023-02-11T22:03:09.423Z,81.43
2023-02-11T22:05:44.141Z,81.28
2023-02-11T22:08:19.162Z,81.46
2023-02-11T22:10:52.558Z,81.48
2023-02-11T22:13:24.983Z,81.48
2023-02-11T22:16:02.929Z,81.84
2023-02-11T22:18:35.623Z,81.74
2023-02-11T22:21:10.350Z,82.27
2023-02-11T22:23:43.397Z,82.39
2023-02-11T22:26:18.604Z,82.67
2023-02-11T22:28:51.782Z,82.51
2023-02-11T22:31:26.372Z,82.45
2023-02-11T22:33:59.218Z,82.32
2023-02-11T22:36:33.274Z,82.21
2023-02-11T22:39:08.939Z,82.22
2023-02-11T22:41:43.790Z,82.72
2023-02-11T22:44:17.655Z,83.18
2023-02-11T22:46:50.289Z,83.52
2023-02-11T22:49:23.495Z,83.68
2023-02-11T22:51:56.066Z,83.98
2023-02-11T22:54:28.803Z,83.41
2023-02-11T22:57:01.245Z,83.04
2023-02-11T22:59:33.442Z,83.35
2023-02-11T23:02:05.835Z,83.61
2023-02-11T23:04:38.185Z,83.49
2023-02-11T23:07:10.993Z,83.15
2023-02-11T23:09:43.719Z,83.48
2023-02-11T23:12:16.443Z,83.80
2023-02-11T23:14:48.761Z,83.64
2023-02-11T23:17:21.279Z,83.46
2023-02-11T23:19:54.537Z,83.21
2023-02-11T23:22:27.150Z,83.32
2023-02-11T23:24:59.957Z,83.40
2023-02-11T23:27:32.520Z,83.33
2023-02-11T23:30:05.558Z,83.49
2023-02-11T23:32:41.064Z,83.77
2023-02-11T23:35:21.995Z,83.87
2023-02-11T23:37:56.522Z,83.92
2023-02-11T23:40:29.190Z,83.90
2023-02-11T23:43:01.739Z,83.78
2023-02-11T23:45:34.327Z,84.03
2023-02-11T23:48:07.050Z,83.58
2023-02-11T23:50:44.079Z,83.55
2023-02-11T23:53:17.199Z,83.39
2023-02-11T23:55:49.577Z,83.83
2023-02-11T23:58:21.941Z,83.86
